Skip Navigation LinksHome page > Weather > Current weather Skip Navigation Links

Current Weather

Aalborg, Denmark

For information only: do not use for flight planning or navigation.
Latest weather
Observation time Friday, March 23, 2018 7:50 AM CET
Local time Friday, March 23, 2018 8:20 AM CET
Flight conditions Conditions unknown
Wind direction South (170°)
Wind speed 7 mph
Sky condition
Ceiling 1,100 ft. overcast
Cloud layer scattered clouds 900 ft.
Cloud layer overcast 1,100 ft.
Temperature 36°F
Dewpoint 34°F
Altimeter 29.71 in.Hg
Derived measurements
Relative humidity 93%
Wind chill 30°F
Density altitude -1232 ft.
Fully automated report.
METAR EKYT 230650Z AUTO 17006KT 9999NDV SCT009/// OVC011/// 02/01 Q1006


Location code

InnerDrive.Weather 4.0.6615.0 Release CLR 4.0.30319.42000
Copyright ©2018 Inner Drive Technology. All rights reserved. Portions Copyright ©1986-2018 David Braverman.

Find weather

Site navigation

Skip Navigation Links

Place info

Page info

PayPal - The safer, easier way to pay online!

Return home.

Copyright ©2018 Inner Drive Technology. Purveyors of fine, hand-crafted computer software. Page printed 2018-03-23T07:20:29 UTC.